createdAt,value
2019-01-21T00:02:28.596Z,19.65
2019-01-21T00:07:33.012Z,20.13
2019-01-21T00:12:37.411Z,19.52
2019-01-21T00:17:41.804Z,19.97
2019-01-21T00:22:47.270Z,19.17
2019-01-21T00:27:51.580Z,19.60
2019-01-21T00:32:55.983Z,19.40
2019-01-21T00:38:00.391Z,20.60
2019-01-21T00:43:04.819Z,20.97
2019-01-21T00:48:09.205Z,21.03
2019-01-21T00:53:13.584Z,20.10
2019-01-21T00:58:18.022Z,19.97
2019-01-21T01:03:22.354Z,20.00
2019-01-21T01:08:26.738Z,20.80
2019-01-21T01:13:31.265Z,18.87
2019-01-21T01:18:35.643Z,20.52
2019-01-21T01:23:40.028Z,21.00
2019-01-21T01:28:44.565Z,20.13
2019-01-21T01:33:48.928Z,19.93
2019-01-21T01:38:53.391Z,20.47
2019-01-21T01:43:57.851Z,20.97
2019-01-21T01:49:02.392Z,20.60
2019-01-21T01:54:06.807Z,19.67
2019-01-21T01:59:11.253Z,19.17
2019-01-21T02:04:15.675Z,20.45
2019-01-21T02:09:20.043Z,20.17
2019-01-21T02:14:24.403Z,18.80
2019-01-21T02:19:29.898Z,19.00
2019-01-21T02:24:36.028Z,18.07
2019-01-21T02:29:49.481Z,17.67
2019-01-21T02:34:57.089Z,19.10
2019-01-21T02:40:07.261Z,19.63
2019-01-21T02:45:17.597Z,19.13
2019-01-21T02:50:25.187Z,18.43
2019-01-21T02:55:51.129Z,19.47
2019-01-21T03:01:10.644Z,18.87
2019-01-21T03:06:23.796Z,19.70
2019-01-21T03:11:46.415Z,18.67
2019-01-21T03:17:10.561Z,18.73
2019-01-21T03:22:33.401Z,18.83
2019-01-21T03:28:15.871Z,18.82
2019-01-21T03:33:23.445Z,18.70
2019-01-21T03:38:44.218Z,19.30
2019-01-21T03:43:57.302Z,19.80
2019-01-21T03:49:04.862Z,18.20
2019-01-21T03:54:12.407Z,19.53
2019-01-21T03:59:35.054Z,20.13
2019-01-21T04:04:51.516Z,19.23
2019-01-21T04:10:15.824Z,19.87
2019-01-21T04:15:28.930Z,18.67
2019-01-21T04:20:57.522Z,18.80
2019-01-21T04:26:26.062Z,18.60
2019-01-21T04:31:54.093Z,20.47
2019-01-21T04:37:04.702Z,18.57
2019-01-21T04:42:18.009Z,19.33
2019-01-21T04:47:49.875Z,19.73
2019-01-21T04:53:03.124Z,18.80
2019-01-21T04:58:38.486Z,17.87
2019-01-21T05:03:50.026Z,17.63
2019-01-21T05:09:00.353Z,19.57
2019-01-21T05:14:27.957Z,19.80
2019-01-21T05:19:58.261Z,19.33
2019-01-21T05:25:14.722Z,19.70
2019-01-21T05:30:25.561Z,19.00
2019-01-21T05:35:54.636Z,19.17
2019-01-21T05:41:05.057Z,20.00
2019-01-21T05:46:28.923Z,20.60
2019-01-21T05:51:56.071Z,20.40
2019-01-21T05:57:07.304Z,22.23
2019-01-21T06:02:33.182Z,19.73
2019-01-21T06:07:46.549Z,22.23
2019-01-21T06:13:02.878Z,21.10
2019-01-21T06:18:16.441Z,23.03
2019-01-21T06:23:32.587Z,20.17
2019-01-21T06:28:46.034Z,22.82
2019-01-21T06:34:26.983Z,25.67
2019-01-21T06:39:58.846Z,24.10
2019-01-21T06:45:31.379Z,24.60
2019-01-21T06:50:41.641Z,24.33
2019-01-21T06:56:01.040Z,23.70
2019-01-21T07:01:14.494Z,22.93
2019-01-21T07:06:46.275Z,25.70
2019-01-21T07:11:56.472Z,24.37
2019-01-21T07:17:09.612Z,25.17
2019-01-21T07:22:22.692Z,25.20
2019-01-21T07:27:32.844Z,26.07
2019-01-21T07:32:43.163Z,25.23
2019-01-21T07:37:56.668Z,21.33
2019-01-21T07:43:07.098Z,22.63
2019-01-21T07:48:26.644Z,21.83
2019-01-21T07:53:58.177Z,21.17
2019-01-21T07:59:14.824Z,21.13
2019-01-21T08:04:22.457Z,20.47
2019-01-21T08:09:45.284Z,21.67
2019-01-21T08:14:55.582Z,21.40
2019-01-21T08:20:21.111Z,20.97
2019-01-21T08:25:55.428Z,20.97
2019-01-21T08:31:05.685Z,21.43
2019-01-21T08:36:38.591Z,21.47
2019-01-21T08:41:51.669Z,20.37
2019-01-21T08:47:08.084Z,19.43
2019-01-21T08:52:15.608Z,19.23
2019-01-21T08:57:25.689Z,19.33
2019-01-21T09:03:03.563Z,19.93
2019-01-21T09:08:37.760Z,21.47
2019-01-21T09:13:47.654Z,21.00
2019-01-21T09:19:00.986Z,22.93
2019-01-21T09:24:32.815Z,23.67
2019-01-21T09:29:46.128Z,22.40
2019-01-21T09:35:18.637Z,22.87
2019-01-21T09:40:32.055Z,24.13
2019-01-21T09:45:56.091Z,22.90
2019-01-21T09:51:03.669Z,22.77
2019-01-21T09:56:08.083Z,23.70
2019-01-21T10:01:12.470Z,23.63
2019-01-21T10:06:19.337Z,24.70
2019-01-21T10:11:29.635Z,24.37
2019-01-21T10:16:39.858Z,24.47
2019-01-21T10:22:06.778Z,24.87
2019-01-21T10:27:23.392Z,25.87
2019-01-21T10:32:55.156Z,26.43
2019-01-21T10:38:08.686Z,26.77
2019-01-21T10:43:39.212Z,25.63
2019-01-21T10:48:58.748Z,25.33
2019-01-21T10:54:12.187Z,25.30
2019-01-21T10:59:45.509Z,24.70
2019-01-21T11:04:55.756Z,25.73
2019-01-21T11:10:24.878Z,24.50
2019-01-21T11:15:32.510Z,25.63
2019-01-21T11:21:01.433Z,26.00
2019-01-21T11:26:18.028Z,26.13
2019-01-21T11:31:28.515Z,26.27
2019-01-21T11:36:54.127Z,26.50
2019-01-21T11:42:23.206Z,25.97
2019-01-21T11:47:30.770Z,28.23
2019-01-21T11:52:41.156Z,25.83
2019-01-21T11:58:06.654Z,26.17
2019-01-21T12:03:23.646Z,25.80
2019-01-21T12:08:43.629Z,26.00
2019-01-21T12:14:09.569Z,25.37
2019-01-21T12:19:20.073Z,24.77
2019-01-21T12:24:25.476Z,26.07
2019-01-21T12:29:41.840Z,27.07
2019-01-21T12:34:55.376Z,25.77
2019-01-21T12:40:15.035Z,26.10
2019-01-21T12:45:25.354Z,28.27
2019-01-21T12:50:52.797Z,25.53
2019-01-21T12:56:16.841Z,26.90
2019-01-21T13:01:33.313Z,28.03
2019-01-21T13:06:55.804Z,26.50
2019-01-21T13:12:12.345Z,26.33
2019-01-21T13:17:19.915Z,28.03
2019-01-21T13:23:00.922Z,28.70
2019-01-21T13:28:28.016Z,27.67
2019-01-21T13:33:38.345Z,26.07
2019-01-21T13:38:55.134Z,27.50
2019-01-21T13:44:23.551Z,26.37
2019-01-21T13:49:48.124Z,26.20
2019-01-21T13:55:17.243Z,26.27
2019-01-21T14:00:33.374Z,26.13
2019-01-21T14:05:56.332Z,26.27
2019-01-21T14:11:27.681Z,25.97
2019-01-21T14:17:00.997Z,24.80
2019-01-21T14:22:41.663Z,24.90
2019-01-21T14:27:51.630Z,26.17
2019-01-21T14:33:10.900Z,27.30
2019-01-21T14:38:30.743Z,25.87
2019-01-21T14:43:41.226Z,26.27
2019-01-21T14:48:54.781Z,24.77
2019-01-21T14:54:17.282Z,25.53
2019-01-21T14:59:38.022Z,24.93
2019-01-21T15:05:05.074Z,25.83
2019-01-21T15:10:18.569Z,26.17
2019-01-21T15:15:54.491Z,26.20
2019-01-21T15:21:07.771Z,26.70
2019-01-21T15:26:27.400Z,25.97
2019-01-21T15:31:40.829Z,27.50
2019-01-21T15:37:21.568Z,28.53
2019-01-21T15:42:34.669Z,28.00
2019-01-21T15:47:51.189Z,28.17
2019-01-21T15:53:01.552Z,30.50
2019-01-21T15:58:09.103Z,28.63
2019-01-21T16:03:25.707Z,30.10
2019-01-21T16:08:33.406Z,28.30
2019-01-21T16:13:44.043Z,29.37
2019-01-21T16:18:57.581Z,28.63
2019-01-21T16:24:24.793Z,28.93
2019-01-21T16:29:37.628Z,30.70
2019-01-21T16:35:14.090Z,28.73
2019-01-21T16:40:27.302Z,26.60
2019-01-21T16:45:31.660Z,26.70
2019-01-21T16:50:36.083Z,25.27
2019-01-21T16:55:40.519Z,24.50
2019-01-21T17:00:45.163Z,26.17
2019-01-21T17:05:49.536Z,26.33
2019-01-21T17:10:53.937Z,35.53
2019-01-21T17:15:58.339Z,27.10
2019-01-21T17:21:02.809Z,27.63
2019-01-21T17:26:07.363Z,28.67
2019-01-21T17:31:11.746Z,26.23
2019-01-21T17:36:16.095Z,27.00
2019-01-21T17:41:20.626Z,26.00
2019-01-21T17:46:24.995Z,25.80
2019-01-21T17:51:33.768Z,25.53
2019-01-21T17:56:35.678Z,25.43
2019-01-21T18:01:40.036Z,27.63
2019-01-21T18:06:44.543Z,26.17
2019-01-21T18:11:49.281Z,29.07
2019-01-21T18:16:53.716Z,29.93
2019-01-21T18:21:58.193Z,29.80
2019-01-21T18:27:02.554Z,29.73
2019-01-21T18:32:06.902Z,31.37
2019-01-21T18:37:11.427Z,28.63
2019-01-21T18:42:15.857Z,31.97
2019-01-21T18:47:20.270Z,32.53
2019-01-21T18:52:24.663Z,33.43
2019-01-21T18:57:29.039Z,31.60
2019-01-21T19:02:33.435Z,32.37
2019-01-21T19:07:37.788Z,32.50
2019-01-21T19:12:42.243Z,31.47
2019-01-21T19:17:46.596Z,33.17
2019-01-21T19:22:50.991Z,31.90
2019-01-21T19:27:55.439Z,29.40
2019-01-21T19:32:59.795Z,30.37
2019-01-21T19:38:04.409Z,28.43
2019-01-21T19:43:09.498Z,30.13
2019-01-21T19:48:15.428Z,29.15
2019-01-21T19:53:22.059Z,30.23
2019-01-21T19:58:26.855Z,29.57
2019-01-21T20:03:31.487Z,28.67
2019-01-21T20:08:36.403Z,30.20
2019-01-21T20:13:41.127Z,30.10
2019-01-21T20:18:47.443Z,29.80
2019-01-21T20:23:52.900Z,29.90
2019-01-21T20:28:57.258Z,28.77
2019-01-21T20:34:01.716Z,30.10
2019-01-21T20:39:08.205Z,29.33
2019-01-21T20:44:12.697Z,30.53
2019-01-21T20:49:17.240Z,30.23
2019-01-21T20:54:21.717Z,27.50
2019-01-21T20:59:26.102Z,27.60
2019-01-21T21:04:33.621Z,28.05
2019-01-21T21:09:38.281Z,27.70
2019-01-21T21:14:44.043Z,27.03
2019-01-21T21:19:48.716Z,28.57
2019-01-21T21:24:53.418Z,27.23
2019-01-21T21:29:58.564Z,27.23
2019-01-21T21:35:03.208Z,26.17
2019-01-21T21:40:11.010Z,26.30
2019-01-21T21:45:17.753Z,27.00
2019-01-21T21:50:25.369Z,28.23
2019-01-21T21:55:29.947Z,37.83
2019-01-21T22:00:34.629Z,29.60
2019-01-21T22:05:39.271Z,28.57
2019-01-21T22:10:43.934Z,27.30
2019-01-21T22:15:48.883Z,28.77
2019-01-21T22:20:53.575Z,27.83
2019-01-21T22:25:58.158Z,28.27
2019-01-21T22:31:02.837Z,27.10
2019-01-21T22:36:07.202Z,26.80
2019-01-21T22:41:11.609Z,27.67
2019-01-21T22:46:15.973Z,26.70
2019-01-21T22:51:20.354Z,28.37
2019-01-21T22:56:24.711Z,27.33
2019-01-21T23:01:30.587Z,25.80
2019-01-21T23:06:35.039Z,26.57
2019-01-21T23:11:39.760Z,28.63
2019-01-21T23:16:44.149Z,26.83
2019-01-21T23:21:48.526Z,26.70
2019-01-21T23:26:53.173Z,26.93
2019-01-21T23:31:58.779Z,25.20
2019-01-21T23:37:03.525Z,24.32
2019-01-21T23:42:07.906Z,25.57
2019-01-21T23:47:12.379Z,25.53
2019-01-21T23:52:16.833Z,24.87
2019-01-21T23:57:21.237Z,23.77
